createdAt,value
2023-03-22T00:01:48.059Z,45.54
2023-03-22T00:06:50.486Z,45.65
2023-03-22T00:11:53.084Z,46.20
2023-03-22T00:16:55.814Z,46.32
2023-03-22T00:21:58.245Z,46.31
2023-03-22T00:27:01.270Z,46.52
2023-03-22T00:32:04.745Z,46.37
2023-03-22T00:37:08.368Z,46.29
2023-03-22T00:42:11.119Z,46.51
2023-03-22T00:47:14.375Z,46.67
2023-03-22T00:52:16.913Z,47.03
2023-03-22T00:57:19.522Z,46.97
2023-03-22T01:02:29.891Z,47.68
2023-03-22T01:07:32.827Z,47.09
2023-03-22T01:12:39.420Z,47.46
2023-03-22T01:17:42.142Z,47.13
2023-03-22T01:22:44.767Z,47.44
2023-03-22T01:27:47.451Z,47.66
2023-03-22T01:32:49.792Z,47.58
2023-03-22T01:37:53.192Z,48.03
2023-03-22T01:42:56.469Z,48.17
2023-03-22T01:48:03.581Z,48.18
2023-03-22T01:53:13.959Z,48.08
2023-03-22T01:58:18.399Z,48.11
2023-03-22T02:03:43.728Z,48.50
2023-03-22T02:08:50.032Z,48.76
2023-03-22T02:14:09.394Z,49.45
2023-03-22T02:20:10.598Z,50.42
2023-03-22T02:25:39.316Z,51.19
2023-03-22T02:31:09.300Z,52.53
2023-03-22T02:36:31.906Z,52.58
2023-03-22T02:41:34.161Z,52.42
2023-03-22T02:47:04.416Z,53.33
2023-03-22T02:52:24.379Z,54.02
2023-03-22T02:57:49.726Z,53.94
2023-03-22T03:02:57.847Z,54.28
2023-03-22T03:08:03.568Z,54.67
2023-03-22T03:13:13.503Z,54.33
2023-03-22T03:18:44.981Z,54.48
2023-03-22T03:24:00.568Z,54.91
2023-03-22T03:29:19.983Z,54.45
2023-03-22T03:34:42.412Z,55.24
2023-03-22T03:39:56.857Z,55.15
2023-03-22T03:45:00.528Z,55.12
2023-03-22T03:50:05.134Z,55.31
2023-03-22T03:55:08.317Z,55.32
2023-03-22T04:00:14.776Z,55.18
2023-03-22T04:05:28.657Z,54.80
2023-03-22T04:10:31.906Z,54.98
2023-03-22T04:15:34.957Z,54.89
2023-03-22T04:20:42.216Z,55.17
2023-03-22T04:25:50.983Z,54.62
2023-03-22T04:31:04.853Z,54.23
2023-03-22T04:36:31.391Z,54.02
2023-03-22T04:42:00.124Z,53.00
2023-03-22T04:47:03.800Z,52.51
2023-03-22T04:52:09.415Z,51.88
2023-03-22T04:57:13.169Z,51.42
2023-03-22T05:02:20.861Z,51.15
2023-03-22T05:07:24.948Z,50.91
2023-03-22T05:12:32.252Z,50.70
2023-03-22T05:17:49.799Z,50.55
2023-03-22T05:22:57.282Z,50.71
2023-03-22T05:28:03.804Z,50.64
2023-03-22T05:33:23.103Z,50.20
2023-03-22T05:38:30.977Z,49.54
2023-03-22T05:43:36.205Z,48.90
2023-03-22T05:48:40.931Z,48.73
2023-03-22T05:53:48.340Z,47.97
2023-03-22T05:58:54.966Z,47.05
2023-03-22T06:03:58.447Z,45.59
2023-03-22T06:09:16.251Z,43.60
2023-03-22T06:14:19.965Z,42.83
2023-03-22T06:19:34.627Z,42.62
2023-03-22T06:24:41.145Z,42.18
2023-03-22T06:29:51.135Z,41.48
2023-03-22T06:34:58.552Z,40.01
2023-03-22T06:40:01.117Z,38.31
2023-03-22T06:45:06.708Z,36.81
2023-03-22T06:50:12.639Z,34.46
2023-03-22T06:55:36.496Z,32.52
2023-03-22T07:00:47.791Z,33.61
2023-03-22T07:05:52.145Z,33.27
2023-03-22T07:10:54.971Z,33.87
2023-03-22T07:16:03.029Z,33.57
2023-03-22T07:21:16.022Z,31.39
2023-03-22T07:26:23.323Z,30.66
2023-03-22T07:31:26.334Z,29.79
2023-03-22T07:36:35.626Z,28.17
2023-03-22T07:41:38.289Z,27.39
2023-03-22T07:46:56.525Z,27.04
2023-03-22T07:52:06.791Z,25.95
2023-03-22T07:57:09.659Z,25.25
2023-03-22T08:02:18.258Z,24.95
2023-03-22T08:07:28.043Z,23.82
2023-03-22T08:12:32.050Z,23.31
2023-03-22T08:17:42.625Z,21.90
2023-03-22T08:22:51.392Z,23.13
2023-03-22T08:28:17.351Z,23.37
2023-03-22T08:33:22.284Z,21.75
2023-03-22T08:38:24.943Z,20.99
2023-03-22T08:43:29.359Z,20.66
2023-03-22T08:48:32.234Z,20.68
2023-03-22T08:53:43.683Z,20.76
2023-03-22T08:59:15.621Z,20.42
2023-03-22T09:04:36.564Z,20.94
2023-03-22T09:09:39.294Z,20.35
2023-03-22T09:14:42.691Z,20.91
2023-03-22T09:19:48.041Z,20.25
2023-03-22T09:24:50.744Z,20.63
2023-03-22T09:29:53.519Z,20.17
2023-03-22T09:34:56.128Z,20.42
2023-03-22T09:40:01.281Z,19.89
2023-03-22T09:45:09.050Z,19.24
2023-03-22T09:50:32.449Z,18.88
2023-03-22T09:55:57.847Z,19.30
2023-03-22T10:01:18.509Z,20.79
2023-03-22T10:06:26.043Z,21.23
2023-03-22T10:11:31.118Z,21.62
2023-03-22T10:16:35.876Z,21.60
2023-03-22T10:21:38.689Z,22.13
2023-03-22T10:26:42.331Z,23.07
2023-03-22T10:31:46.362Z,22.95
2023-03-22T10:36:52.072Z,22.72
2023-03-22T10:42:01.593Z,23.36
2023-03-22T10:47:09.370Z,23.57
2023-03-22T10:52:39.812Z,23.52
2023-03-22T10:57:46.846Z,24.16
2023-03-22T11:03:00.381Z,25.14
2023-03-22T11:08:03.752Z,24.76
2023-03-22T11:13:09.750Z,24.69
2023-03-22T11:18:16.036Z,24.76
2023-03-22T11:23:21.440Z,25.23
2023-03-22T11:28:34.541Z,25.43
2023-03-22T11:33:38.045Z,24.99
2023-03-22T11:38:44.872Z,25.03
2023-03-22T11:43:54.080Z,25.93
2023-03-22T11:49:06.170Z,27.33
2023-03-22T11:54:23.599Z,27.89
2023-03-22T11:59:40.248Z,28.48
2023-03-22T12:04:45.172Z,30.06
2023-03-22T12:09:58.372Z,31.76
2023-03-22T12:15:08.921Z,32.26
2023-03-22T12:20:28.137Z,33.12
2023-03-22T12:25:35.003Z,33.63
2023-03-22T12:30:45.320Z,35.07
2023-03-22T12:35:51.831Z,35.11
2023-03-22T12:40:58.026Z,35.36
2023-03-22T12:46:04.966Z,35.53
2023-03-22T12:51:14.883Z,36.52
2023-03-22T12:56:21.538Z,36.70
2023-03-22T13:01:47.861Z,37.29
2023-03-22T13:06:53.837Z,37.00
2023-03-22T13:12:18.025Z,37.21
2023-03-22T13:17:23.528Z,38.05
2023-03-22T13:22:30.757Z,38.41
2023-03-22T13:27:38.731Z,38.52
2023-03-22T13:32:53.221Z,38.93
2023-03-22T13:38:07.934Z,39.12
2023-03-22T13:43:34.121Z,39.62
2023-03-22T13:48:48.996Z,39.69
2023-03-22T13:53:57.359Z,40.12
2023-03-22T13:59:00.902Z,40.89
2023-03-22T14:04:11.602Z,40.92
2023-03-22T14:09:25.571Z,41.50
2023-03-22T14:14:37.034Z,41.88
2023-03-22T14:19:42.358Z,42.26
